Time;durP1;ratioP1;P1;durP2;ratioP2;P2;SDS_P1;SDS_P2;PMS_P1;PMS_P2;Temp;Humidity;BMP_temperature;BMP_pressure;BME280_temperature;BME280_humidity;BME280_pressure;Samples;Min_cycle;Max_cycle;Signal;HPM_P1;HPM_P2
2022/04/09 00:00:56;;;;;;;2.95;1.33;;;18.90;39.30;;;;;;5135782;27;20012;-50
2022/04/09 00:03:23;;;;;;;4.97;1.42;;;18.90;39.30;;;;;;5135895;27;20055;-51
2022/04/09 00:05:50;;;;;;;2.70;1.20;;;18.90;39.30;;;;;;5136371;27;20039;-53
2022/04/09 00:08:16;;;;;;;3.40;1.45;;;18.80;39.30;;;;;;5138195;27;20019;-54
2022/04/09 00:10:42;;;;;;;3.60;1.48;;;18.80;39.20;;;;;;5137417;27;20069;-53
2022/04/09 00:13:08;;;;;;;3.35;1.63;;;18.90;39.20;;;;;;5137211;28;20027;-54
2022/04/09 00:15:34;;;;;;;3.22;1.40;;;18.80;39.20;;;;;;5101923;28;20022;-53
2022/04/09 00:17:59;;;;;;;4.32;1.58;;;18.80;39.20;;;;;;5137147;28;20007;-53
2022/04/09 00:20:25;;;;;;;3.08;1.52;;;18.80;39.20;;;;;;5118932;28;20051;-52
2022/04/09 00:22:52;;;;;;;3.40;1.52;;;18.80;39.20;;;;;;5137561;28;20100;-52
2022/04/09 00:25:23;;;;;;;2.60;1.45;;;18.80;39.10;;;;;;5137649;28;20023;-52
2022/04/09 00:27:50;;;;;;;4.53;1.85;;;18.80;39.10;;;;;;5137811;27;20041;-52
2022/04/09 00:30:15;;;;;;;3.97;1.73;;;18.80;39.20;;;;;;5140137;27;20042;-52
2022/04/09 00:32:42;;;;;;;3.70;1.42;;;18.80;39.20;;;;;;5141604;27;20046;-52
2022/04/09 00:35:08;;;;;;;2.88;1.30;;;18.80;39.10;;;;;;5142576;27;20049;-49
2022/04/09 00:37:44;;;;;;;4.70;1.35;;;18.70;39.10;;;;;;5143932;27;20373;-47
2022/04/09 00:40:11;;;;;;;4.47;1.98;;;18.70;39.10;;;;;;5144417;27;20012;-49
2022/04/09 00:42:38;;;;;;;3.85;1.70;;;18.70;39.10;;;;;;5144399;27;20042;-52
2022/04/09 00:45:07;;;;;;;4.00;1.52;;;18.70;39.10;;;;;;5143800;27;20023;-52
2022/04/09 00:47:33;;;;;;;4.38;1.65;;;18.70;39.10;;;;;;5143348;27;20015;-54
2022/04/09 00:50:00;;;;;;;4.13;1.58;;;18.70;39.10;;;;;;5111022;27;20027;-56
2022/04/09 00:52:26;;;;;;;3.03;1.40;;;18.70;39.10;;;;;;5141399;27;20024;-47
2022/04/09 00:54:53;;;;;;;5.28;1.52;;;18.70;39.10;;;;;;5139627;27;20047;-55
2022/04/09 00:57:19;;;;;;;4.43;1.65;;;18.70;39.10;;;;;;5120713;27;20015;-53
2022/04/09 00:59:45;;;;;;;3.33;1.60;;;18.70;39.10;;;;;;5120857;27;20465;-52
2022/04/09 01:02:11;;;;;;;4.18;1.55;;;18.70;39.10;;;;;;5120907;27;20096;-51
2022/04/09 01:04:41;;;;;;;3.13;1.30;;;18.70;39.10;;;;;;5139352;27;20084;-50
2022/04/09 01:07:08;;;;;;;2.88;1.30;;;18.70;39.10;;;;;;5140047;27;20019;-52
2022/04/09 01:09:34;;;;;;;2.72;1.38;;;18.70;39.10;;;;;;5141243;27;20007;-51
2022/04/09 01:12:02;;;;;;;3.35;1.58;;;18.60;39.00;;;;;;5140420;27;20069;-52
2022/04/09 01:14:29;;;;;;;4.90;1.80;;;18.60;39.10;;;;;;5139881;27;20139;-53
2022/04/09 01:16:55;;;;;;;3.65;1.80;;;18.60;39.00;;;;;;5139059;27;20015;-51
2022/04/09 01:19:23;;;;;;;4.88;1.77;;;18.60;39.00;;;;;;5138563;27;20010;-52
2022/04/09 01:21:49;;;;;;;5.90;1.83;;;18.60;39.00;;;;;;5138921;27;20051;-52
2022/04/09 01:24:15;;;;;;;5.43;1.70;;;18.60;38.90;;;;;;5138778;28;20019;-52
2022/04/09 01:26:41;;;;;;;4.65;1.85;;;18.60;39.00;;;;;;5120261;28;20019;-52
2022/04/09 01:29:07;;;;;;;3.35;1.60;;;18.60;39.00;;;;;;5139478;28;20019;-52
2022/04/09 01:31:32;;;;;;;4.70;2.13;;;18.60;39.00;;;;;;5138713;28;20477;-51
2022/04/09 01:33:59;;;;;;;4.88;2.10;;;18.60;39.00;;;;;;5138611;28;20056;-52
2022/04/09 01:36:26;;;;;;;4.40;1.67;;;18.60;39.50;;;;;;5139099;28;20024;-52
2022/04/09 01:38:52;;;;;;;6.65;2.13;;;18.60;39.40;;;;;;5139612;28;20019;-51
2022/04/09 01:41:18;;;;;;;4.15;1.90;;;18.60;38.90;;;;;;5138484;27;20477;-51
2022/04/09 01:43:44;;;;;;;3.55;1.60;;;18.60;39.00;;;;;;5138869;28;20385;-51
2022/04/09 01:46:11;;;;;;;3.17;1.77;;;18.60;39.00;;;;;;5139933;28;20152;-49
2022/04/09 01:48:37;;;;;;;5.45;1.67;;;18.50;39.00;;;;;;5139283;28;20136;-52
2022/04/09 01:51:04;;;;;;;4.05;1.60;;;18.50;39.00;;;;;;5138349;28;20096;-52
2022/04/09 01:53:30;;;;;;;3.63;1.58;;;18.50;38.90;;;;;;5119425;28;20015;-50
2022/04/09 01:55:56;;;;;;;3.63;1.48;;;18.50;38.90;;;;;;5139752;28;20019;-51
2022/04/09 01:58:22;;;;;;;3.92;1.90;;;18.50;38.90;;;;;;5139938;28;20012;-56
2022/04/09 02:00:49;;;;;;;4.18;1.88;;;18.50;38.90;;;;;;5140041;28;20023;-52
2022/04/09 02:03:15;;;;;;;2.92;1.88;;;18.50;39.00;;;;;;5138736;28;20461;-52
2022/04/09 02:05:42;;;;;;;4.20;1.83;;;18.50;39.00;;;;;;5137914;28;20016;-50
2022/04/09 02:08:09;;;;;;;6.28;1.67;;;18.50;38.90;;;;;;5136047;28;20469;-49
2022/04/09 02:10:37;;;;;;;5.82;2.08;;;18.50;38.90;;;;;;5137355;28;20023;-51
2022/04/09 02:13:04;;;;;;;5.28;2.05;;;18.50;38.90;;;;;;5119269;28;20018;-53
2022/04/09 02:15:30;;;;;;;4.82;1.80;;;18.50;38.90;;;;;;5136895;28;20019;-52
2022/04/09 02:17:56;;;;;;;3.28;1.70;;;18.50;38.90;;;;;;5136658;28;20017;-52
2022/04/09 02:20:22;;;;;;;4.50;1.50;;;18.50;38.90;;;;;;5136879;28;20019;-52
2022/04/09 02:22:49;;;;;;;4.85;1.90;;;18.50;38.90;;;;;;5082060;27;1553994;-55
2022/04/09 02:25:16;;;;;;;5.20;1.63;;;18.50;39.00;;;;;;5119656;27;20023;-49
2022/04/09 02:27:42;;;;;;;6.15;1.95;;;18.50;39.00;;;;;;5138538;27;20019;-48
2022/04/09 02:30:09;;;;;;;4.35;1.70;;;18.40;39.00;;;;;;5137926;27;20422;-52
2022/04/09 02:33:04;;;;;;;4.35;1.90;;;18.40;38.90;;;;;;5137099;27;20027;-52
2022/04/09 02:35:31;;;;;;;4.18;1.80;;;18.40;39.00;;;;;;5115866;27;20110;-55
2022/04/09 02:37:57;;;;;;;5.30;1.60;;;18.40;38.90;;;;;;5137723;27;20034;-50
2022/04/09 02:40:24;;;;;;;4.15;1.55;;;18.40;38.90;;;;;;5136984;27;20019;-53
2022/04/09 02:42:51;;;;;;;4.97;1.75;;;18.40;38.90;;;;;;5101437;27;20045;-47
2022/04/09 02:45:16;;;;;;;7.47;2.63;;;18.40;38.90;;;;;;5136058;27;20023;-52
2022/04/09 02:47:43;;;;;;;5.40;2.20;;;18.40;38.90;;;;;;5117795;27;20366;-54
2022/04/09 02:50:10;;;;;;;4.50;1.70;;;18.40;38.90;;;;;;5136076;27;20014;-51
2022/04/09 02:52:36;;;;;;;5.45;2.50;;;18.30;38.80;;;;;;5117236;27;20042;-48
2022/04/09 02:55:04;;;;;;;3.70;1.63;;;18.30;38.80;;;;;;5136409;27;20005;-48
2022/04/09 02:57:31;;;;;;;4.63;1.98;;;18.30;38.80;;;;;;5136851;27;20037;-50
2022/04/09 02:59:56;;;;;;;6.05;1.90;;;18.40;38.90;;;;;;5136190;27;20007;-50
2022/04/09 03:02:22;;;;;;;3.78;1.80;;;18.30;39.30;;;;;;5135618;27;20031;-52
2022/04/09 03:04:49;;;;;;;4.20;1.90;;;18.30;38.70;;;;;;5135529;27;20064;-49
2022/04/09 03:07:15;;;;;;;5.07;1.90;;;18.30;38.80;;;;;;5135164;27;20015;-49
2022/04/09 03:09:42;;;;;;;5.70;2.00;;;18.30;38.70;;;;;;5134812;27;20020;-50
2022/04/09 03:12:09;;;;;;;4.35;1.80;;;18.30;38.70;;;;;;5135019;27;20031;-49
2022/04/09 03:14:34;;;;;;;3.53;1.65;;;18.30;38.70;;;;;;5134814;27;20007;-49
2022/04/09 03:17:00;;;;;;;4.93;1.75;;;18.30;38.80;;;;;;5135191;27;20023;-50
2022/04/09 03:19:27;;;;;;;3.70;1.90;;;18.30;38.70;;;;;;5135264;27;20038;-52
2022/04/09 03:21:53;;;;;;;4.45;1.70;;;18.30;38.70;;;;;;5134749;27;20038;-51
2022/04/09 03:24:20;;;;;;;4.40;1.85;;;18.30;38.70;;;;;;5134649;27;20027;-50
2022/04/09 03:26:46;;;;;;;3.95;1.90;;;18.20;38.60;;;;;;5134852;27;20072;-48
2022/04/09 03:29:13;;;;;;;3.97;1.77;;;18.20;38.60;;;;;;5134568;27;20042;-51
2022/04/09 03:31:39;;;;;;;7.93;2.63;;;18.30;38.60;;;;;;5134560;27;20027;-47
2022/04/09 03:34:05;;;;;;;6.75;2.30;;;18.20;38.60;;;;;;5134541;27;20022;-49
2022/04/09 03:36:31;;;;;;;5.72;2.15;;;18.20;38.50;;;;;;5135122;27;20007;-57
2022/04/09 03:38:56;;;;;;;6.25;2.13;;;18.20;38.50;;;;;;5135428;27;20072;-53
2022/04/09 03:41:22;;;;;;;4.32;1.55;;;18.20;38.50;;;;;;5116667;27;20122;-50
2022/04/09 03:43:49;;;;;;;6.20;2.33;;;18.20;38.50;;;;;;5135396;27;20023;-53
2022/04/09 03:46:15;;;;;;;6.15;2.10;;;18.20;38.50;;;;;;5135386;27;20019;-51
2022/04/09 03:48:43;;;;;;;8.15;2.55;;;18.20;38.50;;;;;;5134602;27;20557;-50
2022/04/09 03:51:09;;;;;;;5.25;1.92;;;18.20;38.50;;;;;;5135054;27;20140;-50
2022/04/09 03:53:36;;;;;;;4.53;1.95;;;18.20;38.50;;;;;;5135147;27;20030;-56
2022/04/09 03:56:04;;;;;;;7.00;2.10;;;18.20;38.50;;;;;;5134253;27;20019;-51
2022/04/09 03:58:29;;;;;;;6.20;2.25;;;18.10;38.40;;;;;;5134682;27;20011;-51
2022/04/09 04:00:56;;;;;;;4.75;1.90;;;18.20;38.50;;;;;;5134632;27;20023;-48
2022/04/09 04:03:22;;;;;;;4.72;1.60;;;18.20;38.50;;;;;;5134626;27;20491;-47
2022/04/09 04:05:49;;;;;;;5.63;2.47;;;18.10;38.40;;;;;;5134546;27;20007;-54
2022/04/09 04:08:15;;;;;;;4.38;1.88;;;18.10;38.40;;;;;;5134985;27;20034;-53
2022/04/09 04:10:40;;;;;;;6.18;2.40;;;18.10;38.30;;;;;;5099099;27;20473;-52
2022/04/09 04:13:06;;;;;;;5.20;1.98;;;18.10;38.40;;;;;;5134242;27;20023;-54
2022/04/09 04:15:33;;;;;;;6.03;2.20;;;18.10;38.40;;;;;;5134214;28;20544;-53
2022/04/09 04:17:59;;;;;;;5.38;2.03;;;18.10;38.40;;;;;;5134165;28;20015;-53
2022/04/09 04:20:25;;;;;;;6.22;2.30;;;18.10;38.30;;;;;;5116728;28;20015;-53
2022/04/09 04:22:51;;;;;;;4.00;1.95;;;18.10;38.40;;;;;;5136826;28;20069;-53
2022/04/09 04:25:17;;;;;;;4.95;2.00;;;18.10;38.30;;;;;;5140797;28;20458;-52
2022/04/09 04:27:44;;;;;;;4.70;1.88;;;18.10;38.30;;;;;;5120365;28;20027;-51
2022/04/09 04:30:10;;;;;;;5.88;2.40;;;18.10;38.30;;;;;;5136454;28;20012;-52
2022/04/09 04:32:36;;;;;;;5.13;2.20;;;18.10;38.30;;;;;;5137194;28;20076;-52
2022/04/09 04:35:03;;;;;;;7.05;2.17;;;18.10;38.30;;;;;;5118247;28;20019;-53
2022/04/09 04:37:45;;;;;;;6.68;2.30;;;18.10;38.30;;;;;;5136512;28;20015;-51
2022/04/09 04:40:11;;;;;;;4.80;2.28;;;18.00;38.30;;;;;;5136650;28;20497;-52
2022/04/09 04:42:37;;;;;;;5.20;2.00;;;18.10;38.30;;;;;;5118372;28;20060;-55
2022/04/09 04:45:04;;;;;;;6.22;2.00;;;18.10;38.40;;;;;;5137010;28;20019;-52
2022/04/09 04:47:30;;;;;;;7.05;2.47;;;18.10;38.40;;;;;;5136463;28;20027;-49
2022/04/09 04:49:57;;;;;;;7.47;2.05;;;18.00;38.30;;;;;;5136371;28;20385;-54
2022/04/09 04:52:24;;;;;;;5.25;2.03;;;18.00;38.20;;;;;;5133867;28;20546;-50
2022/04/09 04:54:50;;;;;;;6.88;2.42;;;18.00;38.20;;;;;;5133770;28;20507;-53
2022/04/09 04:57:16;;;;;;;4.50;2.03;;;18.00;38.20;;;;;;5133831;28;20091;-49
2022/04/09 04:59:41;;;;;;;5.53;2.40;;;18.00;38.30;;;;;;5133780;28;20448;-52
2022/04/09 05:02:08;;;;;;;9.13;2.47;;;18.00;38.90;;;;;;5133861;28;20015;-51
2022/04/09 05:04:35;;;;;;;8.95;2.83;;;18.00;38.20;;;;;;5133481;28;20461;-52
2022/04/09 05:07:01;;;;;;;6.63;2.45;;;18.00;38.20;;;;;;5134036;28;20076;-53
2022/04/09 05:09:28;;;;;;;4.78;2.20;;;18.00;38.20;;;;;;5134168;28;20018;-49
2022/04/09 05:11:55;;;;;;;6.97;2.15;;;18.00;38.20;;;;;;5133698;28;20016;-51
2022/04/09 05:14:22;;;;;;;5.10;2.03;;;18.00;38.20;;;;;;5133921;27;20027;-50
2022/04/09 05:16:48;;;;;;;4.47;1.85;;;18.00;38.20;;;;;;5137304;27;20011;-49
2022/04/09 05:19:15;;;;;;;6.15;2.13;;;18.00;38.80;;;;;;5137539;27;20458;-51
2022/04/09 05:21:42;;;;;;;8.23;2.50;;;18.00;38.20;;;;;;5137570;27;20062;-50
2022/04/09 05:24:08;;;;;;;4.95;2.13;;;18.00;38.20;;;;;;5137724;27;20019;-51
2022/04/09 05:26:35;;;;;;;7.57;2.58;;;17.90;38.20;;;;;;5137488;27;20496;-53
2022/04/09 05:29:02;;;;;;;10.30;2.60;;;17.90;38.10;;;;;;5137728;27;20027;-51
2022/04/09 05:31:28;;;;;;;7.22;2.58;;;18.00;38.20;;;;;;5137565;27;20023;-50
2022/04/09 05:33:55;;;;;;;6.43;2.33;;;17.90;38.10;;;;;;5137812;27;20068;-54
2022/04/09 05:36:21;;;;;;;7.55;2.75;;;18.00;38.10;;;;;;5137469;27;20011;-53
2022/04/09 05:38:47;;;;;;;4.80;2.40;;;17.90;38.20;;;;;;5137538;27;20029;-53
2022/04/09 05:41:14;;;;;;;5.85;2.60;;;18.00;38.20;;;;;;5136947;27;20034;-54
2022/04/09 05:43:43;;;;;;;7.78;2.40;;;17.90;38.10;;;;;;5137005;27;20492;-54
2022/04/09 05:46:09;;;;;;;6.38;2.50;;;17.90;38.10;;;;;;5137459;27;20102;-55
2022/04/09 05:48:34;;;;;;;8.15;2.92;;;17.90;38.10;;;;;;5137618;27;20015;-54
2022/04/09 05:51:01;;;;;;;6.30;2.58;;;17.90;38.10;;;;;;5137626;27;20031;-49
2022/04/09 05:53:27;;;;;;;5.70;2.17;;;17.90;38.20;;;;;;5137301;27;20030;-51
2022/04/09 05:55:54;;;;;;;8.77;2.70;;;17.90;38.10;;;;;;5137712;27;20031;-52
2022/04/09 05:58:20;;;;;;;5.50;2.45;;;17.90;38.10;;;;;;5137944;27;20500;-53
2022/04/09 06:00:46;;;;;;;7.20;2.53;;;17.90;38.10;;;;;;5138303;27;20074;-53
2022/04/09 06:03:13;;;;;;;5.68;2.40;;;17.90;38.10;;;;;;5138895;27;20011;-52
2022/04/09 06:05:40;;;;;;;6.47;2.30;;;17.90;38.10;;;;;;5138489;27;20022;-55
2022/04/09 06:08:06;;;;;;;8.95;2.83;;;17.90;38.10;;;;;;5138356;27;20047;-55
2022/04/09 06:10:32;;;;;;;6.47;2.50;;;17.90;38.00;;;;;;5138555;27;20016;-54
2022/04/09 06:12:59;;;;;;;5.93;2.50;;;17.90;38.00;;;;;;5138329;27;20046;-53
2022/04/09 06:15:25;;;;;;;9.75;2.75;;;17.90;38.10;;;;;;5138482;27;20019;-53
2022/04/09 06:17:52;;;;;;;7.30;2.80;;;17.90;38.00;;;;;;5138399;27;20508;-54
2022/04/09 06:20:18;;;;;;;7.28;2.78;;;17.90;38.00;;;;;;5137996;27;20026;-55
2022/04/09 06:22:46;;;;;;;8.15;2.40;;;17.90;38.00;;;;;;5137180;27;20505;-52
2022/04/09 06:25:12;;;;;;;5.30;2.70;;;17.90;38.00;;;;;;5136889;27;20027;-52
2022/04/09 06:27:39;;;;;;;9.27;2.70;;;17.90;38.10;;;;;;5135291;27;20023;-52
2022/04/09 06:30:05;;;;;;;6.18;2.35;;;17.90;38.00;;;;;;5136127;27;20023;-53
2022/04/09 06:32:31;;;;;;;8.00;2.20;;;17.90;38.00;;;;;;5136140;27;20019;-52
2022/04/09 06:34:57;;;;;;;5.07;2.28;;;17.90;38.00;;;;;;5135961;27;20134;-52
2022/04/09 06:37:23;;;;;;;7.50;2.83;;;17.80;38.00;;;;;;5136322;27;20087;-54
2022/04/09 06:39:49;;;;;;;5.95;2.58;;;17.90;38.00;;;;;;5135831;27;20473;-54
2022/04/09 06:42:16;;;;;;;5.97;2.58;;;17.80;37.90;;;;;;5136022;27;20019;-53
2022/04/09 06:44:44;;;;;;;6.30;2.42;;;17.90;38.00;;;;;;5135936;27;20061;-54
2022/04/09 06:47:10;;;;;;;6.90;2.05;;;17.80;37.90;;;;;;5135641;27;20485;-53
2022/04/09 06:49:38;;;;;;;7.03;2.22;;;17.90;38.00;;;;;;5135677;27;20466;-54
2022/04/09 06:52:03;;;;;;;7.07;3.00;;;17.90;37.90;;;;;;5136057;27;20019;-52
2022/04/09 06:54:30;;;;;;;9.02;2.55;;;17.90;38.00;;;;;;5135682;27;20497;-57
2022/04/09 06:56:56;;;;;;;6.38;2.75;;;17.90;37.90;;;;;;5117798;27;20023;-53
2022/04/09 06:59:22;;;;;;;6.43;2.97;;;17.90;37.90;;;;;;5135437;27;20358;-56
2022/04/09 07:01:48;;;;;;;9.70;2.67;;;17.90;37.80;;;;;;5100285;27;20496;-53
2022/04/09 07:04:14;;;;;;;7.68;2.67;;;17.90;37.80;;;;;;5117192;27;20019;-53
2022/04/09 07:06:41;;;;;;;5.97;2.42;;;17.90;37.80;;;;;;5135115;27;20015;-50
2022/04/09 07:09:06;;;;;;;7.28;2.88;;;17.90;37.80;;;;;;5135303;27;20023;-53
2022/04/09 07:11:32;;;;;;;8.82;2.75;;;17.90;37.70;;;;;;5134745;27;20011;-48
2022/04/09 07:13:58;;;;;;;7.43;2.60;;;17.90;37.80;;;;;;5134937;27;20023;-49
2022/04/09 07:16:24;;;;;;;8.80;2.63;;;17.90;37.70;;;;;;5116962;27;20019;-51
2022/04/09 07:18:50;;;;;;;7.40;2.65;;;17.90;37.80;;;;;;5136506;27;20382;-48
2022/04/09 07:21:16;;;;;;;11.32;2.78;;;18.00;37.80;;;;;;5135018;27;20541;-51
2022/04/09 07:23:42;;;;;;;8.02;2.53;;;18.00;37.70;;;;;;5134602;27;20019;-48
2022/04/09 07:26:09;;;;;;;6.07;2.58;;;18.00;37.70;;;;;;5134872;27;20062;-48
2022/04/09 07:28:36;;;;;;;7.07;2.38;;;18.00;37.60;;;;;;5134915;27;20007;-57
2022/04/09 07:31:02;;;;;;;6.38;2.72;;;18.00;37.60;;;;;;5134936;27;20027;-55
2022/04/09 07:33:28;;;;;;;7.47;2.53;;;18.00;37.70;;;;;;5134994;27;20043;-55
2022/04/09 07:35:53;;;;;;;6.63;2.55;;;18.00;37.70;;;;;;5116762;27;20381;-53
2022/04/09 07:38:20;;;;;;;6.03;2.50;;;18.00;37.70;;;;;;5135242;27;20015;-49
2022/04/09 07:40:46;;;;;;;8.23;3.05;;;18.00;37.70;;;;;;5135847;27;20030;-52
2022/04/09 07:43:12;;;;;;;6.32;2.80;;;18.00;37.70;;;;;;5099871;27;20019;-53
2022/04/09 07:45:38;;;;;;;6.55;2.40;;;18.00;37.80;;;;;;5134874;27;20019;-55
2022/04/09 07:48:05;;;;;;;5.88;2.42;;;18.00;37.80;;;;;;5134783;27;20050;-51
2022/04/09 07:50:32;;;;;;;9.73;2.80;;;18.00;37.80;;;;;;5134576;27;20140;-51
2022/04/09 07:52:58;;;;;;;7.22;2.90;;;18.00;37.80;;;;;;5134386;27;20027;-51
2022/04/09 07:55:24;;;;;;;11.30;3.00;;;18.00;37.80;;;;;;5134536;27;20012;-47
2022/04/09 07:57:50;;;;;;;7.95;2.75;;;17.90;37.80;;;;;;5134316;27;20034;-50
2022/04/09 08:00:17;;;;;;;11.05;3.17;;;17.90;37.80;;;;;;5134191;27;20015;-52
2022/04/09 08:02:44;;;;;;;5.65;2.45;;;17.90;37.90;;;;;;5134493;27;20068;-54
2022/04/09 08:05:10;;;;;;;8.40;2.35;;;17.90;37.90;;;;;;5134710;27;20042;-54
2022/04/09 08:07:38;;;;;;;10.27;2.67;;;17.90;37.90;;;;;;5134209;27;20022;-54
2022/04/09 08:10:05;;;;;;;8.07;2.65;;;17.90;38.00;;;;;;5134271;27;20046;-54
2022/04/09 08:12:31;;;;;;;5.97;2.55;;;17.90;38.00;;;;;;5134269;27;20059;-54
2022/04/09 08:14:57;;;;;;;10.23;2.70;;;17.90;38.00;;;;;;5134462;27;20047;-54
2022/04/09 08:17:23;;;;;;;6.40;2.40;;;17.90;38.00;;;;;;5134547;28;20008;-55
2022/04/09 08:19:49;;;;;;;8.32;2.70;;;17.90;38.00;;;;;;5134101;28;20461;-55
2022/04/09 08:22:16;;;;;;;7.63;2.78;;;17.90;38.00;;;;;;5115574;28;20046;-52
2022/04/09 08:24:42;;;;;;;8.10;2.60;;;17.90;38.10;;;;;;5134136;28;20019;-56
2022/04/09 08:27:08;;;;;;;6.05;2.25;;;17.90;38.10;;;;;;5134326;28;20067;-55
2022/04/09 08:29:35;;;;;;;5.38;2.25;;;17.90;38.10;;;;;;5133881;28;20154;-51
2022/04/09 08:32:01;;;;;;;6.70;2.33;;;17.90;38.00;;;;;;5133913;28;20031;-52
2022/04/09 08:34:29;;;;;;;9.20;2.63;;;17.90;38.00;;;;;;5134154;28;20015;-51
2022/04/09 08:36:55;;;;;;;6.07;2.38;;;17.90;38.00;;;;;;5134501;28;20039;-53
2022/04/09 08:39:22;;;;;;;5.85;2.45;;;17.90;37.90;;;;;;5134690;28;20026;-53
2022/04/09 08:41:48;;;;;;;5.40;2.22;;;17.90;37.90;;;;;;5134000;28;20016;-52
2022/04/09 08:44:15;;;;;;;6.70;2.83;;;17.90;37.90;;;;;;5116014;28;20106;-54
2022/04/09 08:46:41;;;;;;;6.60;2.40;;;17.90;37.90;;;;;;5134325;28;20070;-53
2022/04/09 08:49:07;;;;;;;6.57;2.30;;;17.90;37.90;;;;;;5135212;27;20096;-52
2022/04/09 08:51:33;;;;;;;6.20;2.80;;;17.90;38.00;;;;;;5138557;27;20080;-57
2022/04/09 08:54:02;;;;;;;6.65;2.63;;;17.90;37.90;;;;;;5139421;27;20023;-54
2022/04/09 08:56:29;;;;;;;5.13;1.95;;;17.90;37.90;;;;;;5139266;27;20068;-55
2022/04/09 08:58:59;;;;;;;5.75;1.95;;;17.90;37.80;;;;;;5121400;27;20011;-54
2022/04/09 09:01:25;;;;;;;11.48;2.20;;;17.90;37.80;;;;;;5120815;27;20106;-53
2022/04/09 09:03:51;;;;;;;5.07;2.25;;;17.90;37.70;;;;;;5138966;27;20038;-55
2022/04/09 09:06:30;;;;;;;6.65;2.10;;;17.90;37.70;;;;;;5138205;27;20019;-55
2022/04/09 09:08:57;;;;;;;7.72;2.60;;;17.90;37.70;;;;;;5138484;27;20019;-52
2022/04/09 09:11:24;;;;;;;4.38;2.15;;;17.90;37.70;;;;;;5137503;27;20031;-53
2022/04/09 09:13:51;;;;;;;8.85;2.60;;;17.90;37.60;;;;;;5138206;27;20072;-51
2022/04/09 09:16:30;;;;;;;4.85;1.90;;;17.90;37.60;;;;;;5137814;27;20031;-50
2022/04/09 09:19:02;;;;;;;7.93;2.33;;;17.90;37.50;;;;;;5137652;27;20008;-48
2022/04/09 09:21:28;;;;;;;8.55;2.58;;;17.90;37.50;;;;;;5138480;27;20019;-50
2022/04/09 09:24:06;;;;;;;5.28;1.95;;;17.90;37.50;;;;;;5138951;27;20560;-48
2022/04/09 09:26:39;;;;;;;5.65;2.13;;;18.00;37.50;;;;;;5139726;27;20022;-54
2022/04/09 09:29:06;;;;;;;4.88;2.10;;;17.90;37.50;;;;;;5121984;27;20015;-61
2022/04/09 09:31:42;;;;;;;7.03;2.38;;;17.90;37.50;;;;;;5140185;27;20024;-60
2022/04/09 09:34:08;;;;;;;7.03;2.20;;;17.90;37.50;;;;;;5139652;27;20022;-60
2022/04/09 09:36:36;;;;;;;5.97;2.00;;;17.90;37.40;;;;;;5140153;27;20022;-59
2022/04/09 09:39:06;;;;;;;9.48;2.47;;;17.80;37.30;;;;;;5139030;27;20020;-59
2022/04/09 09:41:31;;;;;;;6.30;2.42;;;17.80;37.20;;;;;;5136670;27;20038;-59
2022/04/09 09:44:04;;;;;;;5.75;2.33;;;17.90;37.30;;;;;;5118138;27;20027;-59
2022/04/09 09:46:31;;;;;;;7.13;2.50;;;17.90;37.30;;;;;;5136490;27;20007;-58
2022/04/09 09:48:57;;;;;;;6.15;2.40;;;17.90;37.30;;;;;;5136879;27;20019;-58
2022/04/09 09:51:23;;;;;;;7.88;2.00;;;17.90;37.10;;;;;;5136599;27;20499;-59
2022/04/09 09:53:48;;;;;;;5.72;2.28;;;17.90;36.90;;;;;;5136687;27;20023;-59
2022/04/09 09:56:31;;;;;;;6.50;2.22;;;17.90;37.00;;;;;;5136382;27;20015;-59
2022/04/09 09:58:57;;;;;;;4.38;2.05;;;17.90;36.90;;;;;;5120569;27;20049;-59
2022/04/09 10:01:22;;;;;;;6.57;1.80;;;17.90;36.90;;;;;;5136197;27;20091;-58
2022/04/09 10:03:49;;;;;;;4.30;2.05;;;17.80;36.80;;;;;;5136284;27;20023;-59
2022/04/09 10:06:15;;;;;;;5.20;2.03;;;17.90;36.90;;;;;;5118274;27;20017;-59
2022/04/09 10:08:41;;;;;;;5.18;2.13;;;17.80;36.80;;;;;;5136350;27;20091;-59
2022/04/09 10:11:07;;;;;;;5.07;1.70;;;17.90;36.80;;;;;;5136429;27;20528;-59
2022/04/09 10:13:32;;;;;;;4.53;1.85;;;17.80;36.70;;;;;;5117946;27;20501;-59
2022/04/09 10:15:59;;;;;;;4.80;1.88;;;17.80;36.60;;;;;;5118391;27;20140;-59
2022/04/09 10:18:25;;;;;;;6.72;2.00;;;17.90;36.60;;;;;;5118346;27;20056;-59
2022/04/09 10:20:59;;;;;;;5.40;1.83;;;17.90;36.50;;;;;;5136556;27;20516;-59
2022/04/09 10:23:25;;;;;;;5.25;1.77;;;17.90;36.40;;;;;;5136381;27;20036;-60
2022/04/09 10:25:52;;;;;;;4.57;1.77;;;17.90;36.40;;;;;;5101571;27;20015;-60
2022/04/09 10:28:31;;;;;;;3.42;1.65;;;17.90;36.30;;;;;;5101370;27;20023;-62
2022/04/09 10:30:57;;;;;;;4.60;1.92;;;17.90;36.30;;;;;;5136422;27;20019;-59
2022/04/09 10:33:27;;;;;;;5.95;1.88;;;17.90;36.20;;;;;;5136501;27;20021;-61
2022/04/09 10:35:52;;;;;;;5.20;2.08;;;17.90;36.20;;;;;;5118237;27;20035;-60
2022/04/09 10:38:25;;;;;;;4.85;1.70;;;17.90;36.10;;;;;;5136250;27;20092;-60
2022/04/09 10:40:52;;;;;;;3.33;1.55;;;17.90;36.10;;;;;;5136386;27;20470;-64
2022/04/09 10:43:28;;;;;;;3.10;1.38;;;17.90;35.90;;;;;;5136622;27;20019;-60
2022/04/09 10:46:00;;;;;;;4.72;2.10;;;17.90;36.00;;;;;;5136672;27;20095;-61
2022/04/09 10:48:37;;;;;;;7.90;1.98;;;17.90;35.90;;;;;;5136661;27;20030;-61
2022/04/09 10:51:07;;;;;;;4.75;1.48;;;17.90;35.90;;;;;;5136689;27;20084;-61
2022/04/09 10:53:37;;;;;;;5.60;1.63;;;17.90;35.90;;;;;;5137041;27;20019;-61
2022/04/09 10:56:25;;;;;;;4.55;1.85;;;17.90;36.50;;;;;;5136804;27;20382;-61
2022/04/09 10:59:18;;;;;;;4.75;1.90;;;17.90;35.90;;;;;;5136188;27;20011;-61
2022/04/09 11:01:48;;;;;;;4.03;1.77;;;17.90;35.80;;;;;;5135718;27;20023;-60
2022/04/09 11:04:26;;;;;;;3.22;1.50;;;17.80;35.60;;;;;;5136203;27;20053;-61
2022/04/09 11:07:02;;;;;;;3.85;1.50;;;17.80;35.50;;;;;;5136022;27;20132;-62
2022/04/09 11:09:56;;;;;;;3.67;1.58;;;17.80;35.50;;;;;;5136247;27;20015;-60
2022/04/09 11:12:26;;;;;;;4.80;1.70;;;17.80;35.30;;;;;;5135726;27;20027;-62
2022/04/09 11:15:02;;;;;;;3.63;1.73;;;17.80;35.20;;;;;;5135695;27;20022;-61
2022/04/09 11:17:31;;;;;;;4.35;1.35;;;17.80;35.00;;;;;;5136226;27;20022;-60
2022/04/09 11:20:06;;;;;;;3.30;1.38;;;17.80;34.80;;;;;;5136331;27;20481;-59
2022/04/09 11:22:36;;;;;;;4.05;1.52;;;17.90;34.90;;;;;;5136543;27;20035;-61
2022/04/09 11:25:03;;;;;;;4.17;1.30;;;17.90;34.80;;;;;;5136704;27;20106;-60
2022/04/09 11:27:30;;;;;;;4.22;1.55;;;17.90;34.60;;;;;;5136650;27;20018;-62
2022/04/09 11:29:55;;;;;;;3.45;1.38;;;17.90;34.80;;;;;;5136322;27;20102;-61
2022/04/09 11:32:23;;;;;;;3.70;1.27;;;17.90;34.60;;;;;;5135334;27;20034;-61
2022/04/09 11:34:59;;;;;;;3.05;1.38;;;18.00;34.60;;;;;;5135325;27;20018;-61
2022/04/09 11:37:30;;;;;;;3.63;1.60;;;18.00;34.70;;;;;;5136347;27;20086;-60
2022/04/09 11:39:56;;;;;;;4.78;1.73;;;18.00;34.60;;;;;;5119075;27;20019;-60
2022/04/09 11:42:23;;;;;;;4.03;1.40;;;18.00;34.40;;;;;;5137398;27;20019;-61
2022/04/09 11:44:48;;;;;;;3.28;1.20;;;18.00;34.30;;;;;;5137610;27;20026;-60
2022/04/09 11:47:18;;;;;;;4.60;1.80;;;18.00;34.70;;;;;;5137326;27;20043;-62
2022/04/09 11:49:45;;;;;;;4.07;1.20;;;18.00;34.40;;;;;;5136780;27;20022;-60
2022/04/09 11:52:11;;;;;;;4.22;1.08;;;18.00;34.40;;;;;;5134997;27;20103;-60
2022/04/09 11:54:43;;;;;;;3.45;1.10;;;18.00;34.30;;;;;;5134953;27;20003;-61
2022/04/09 11:57:11;;;;;;;4.20;1.42;;;18.00;34.40;;;;;;5135026;27;20106;-60
2022/04/09 11:59:37;;;;;;;2.55;1.20;;;18.00;34.40;;;;;;5134916;27;20008;-61
2022/04/09 12:02:02;;;;;;;3.10;1.40;;;18.00;34.30;;;;;;5134672;27;20366;-61
2022/04/09 12:04:34;;;;;;;3.63;1.20;;;18.00;34.40;;;;;;5134884;27;20019;-60
2022/04/09 12:07:02;;;;;;;3.00;1.20;;;18.00;34.20;;;;;;5117242;27;20169;-61
2022/04/09 12:09:28;;;;;;;3.95;1.35;;;18.00;34.20;;;;;;5135074;27;20019;-59
2022/04/09 12:11:54;;;;;;;2.17;1.05;;;18.00;34.30;;;;;;5134728;27;20022;-60
2022/04/09 12:14:20;;;;;;;2.92;1.42;;;18.00;34.10;;;;;;5115894;28;20033;-59
2022/04/09 12:16:47;;;;;;;4.25;1.35;;;18.10;34.20;;;;;;5116290;27;20496;-59
2022/04/09 12:19:14;;;;;;;2.80;1.13;;;18.10;34.00;;;;;;5116521;28;20048;-60
2022/04/09 12:21:41;;;;;;;2.88;1.50;;;18.10;34.20;;;;;;5112383;28;20067;-59
2022/04/09 12:24:11;;;;;;;3.10;1.20;;;18.10;34.00;;;;;;5114304;28;20099;-59
2022/04/09 12:26:38;;;;;;;2.50;1.00;;;18.00;34.10;;;;;;5117578;28;20019;-59
2022/04/09 12:29:12;;;;;;;2.05;1.10;;;18.10;34.10;;;;;;5117896;28;20039;-58
2022/04/09 12:31:41;;;;;;;4.72;1.27;;;18.10;33.90;;;;;;5117264;28;20023;-59
2022/04/09 12:34:07;;;;;;;5.28;1.30;;;18.10;33.80;;;;;;5117891;28;20045;-58
2022/04/09 12:36:33;;;;;;;1.67;0.90;;;18.10;34.00;;;;;;5117338;28;20011;-58
2022/04/09 12:39:00;;;;;;;1.85;1.00;;;18.10;34.20;;;;;;5117509;28;20023;-58
2022/04/09 12:41:26;;;;;;;3.50;1.38;;;18.10;34.00;;;;;;5117172;28;20012;-59
2022/04/09 12:43:52;;;;;;;2.65;1.08;;;18.10;33.70;;;;;;5116158;28;20020;-59
2022/04/09 12:46:18;;;;;;;2.85;1.13;;;18.10;34.10;;;;;;5115913;28;20038;-57